createdAt,value
2023-02-09T00:00:43.035Z,1.40
2023-02-09T00:01:44.832Z,3.70
2023-02-09T00:02:46.404Z,3.92
2023-02-09T00:03:47.976Z,3.42
2023-02-09T00:04:49.511Z,1.92
2023-02-09T00:05:51.113Z,22.33
2023-02-09T00:06:52.620Z,22.88
2023-02-09T00:07:54.197Z,10.38
2023-02-09T00:08:56.240Z,10.77
2023-02-09T00:09:57.733Z,12.23
2023-02-09T00:10:59.650Z,11.68
2023-02-09T00:12:01.154Z,14.52
2023-02-09T00:13:02.760Z,14.73
2023-02-09T00:14:04.258Z,2.30
2023-02-09T00:15:07.363Z,6.55
2023-02-09T00:16:08.904Z,15.20
2023-02-09T00:17:10.508Z,19.65
2023-02-09T00:18:12.089Z,0.40
2023-02-09T00:19:14.125Z,0.75
2023-02-09T00:20:15.735Z,1.02
2023-02-09T00:21:17.351Z,12.52
2023-02-09T00:22:18.874Z,2.92
2023-02-09T00:23:20.447Z,3.50
2023-02-09T00:24:22.031Z,41.55
2023-02-09T00:25:23.554Z,71.25
2023-02-09T00:26:25.358Z,2.38
2023-02-09T00:27:27.069Z,2.05
2023-02-09T00:28:29.012Z,15.98
2023-02-09T00:29:30.588Z,1.20
2023-02-09T00:30:32.222Z,2.72
2023-02-09T00:31:34.453Z,3.53
2023-02-09T00:32:36.049Z,3.88
2023-02-09T00:33:38.131Z,0.50
2023-02-09T00:34:39.832Z,3.25
2023-02-09T00:35:42.523Z,10.90
2023-02-09T00:36:44.133Z,22.83
2023-02-09T00:37:45.670Z,14.50
2023-02-09T00:38:48.478Z,1.75
2023-02-09T00:39:50.616Z,10.70
2023-02-09T00:40:52.201Z,2.65
2023-02-09T00:41:54.144Z,8.35
2023-02-09T00:42:55.674Z,27.00
2023-02-09T00:43:58.264Z,0.40
2023-02-09T00:44:59.872Z,2.97
2023-02-09T00:46:02.232Z,1.02
2023-02-09T00:47:05.227Z,30.80
2023-02-09T00:48:06.770Z,19.00
2023-02-09T00:49:08.544Z,15.10
2023-02-09T00:50:10.130Z,31.42
2023-02-09T00:51:11.711Z,15.73
2023-02-09T00:52:13.251Z,30.05
2023-02-09T00:53:14.957Z,44.45
2023-02-09T00:54:16.641Z,14.20
2023-02-09T00:55:20.119Z,19.05
2023-02-09T00:56:21.718Z,41.22
2023-02-09T00:57:23.316Z,53.53
2023-02-09T00:58:24.865Z,22.13
2023-02-09T00:59:26.431Z,34.42
2023-02-09T01:00:27.988Z,23.48
2023-02-09T01:01:29.798Z,18.63
2023-02-09T01:02:31.662Z,8.27
2023-02-09T01:03:34.073Z,8.82
2023-02-09T01:04:37.352Z,22.98
2023-02-09T01:05:42.743Z,13.40
2023-02-09T01:06:44.314Z,16.75
2023-02-09T01:07:45.915Z,17.38
2023-02-09T01:08:48.338Z,11.85
2023-02-09T01:09:49.936Z,7.45
2023-02-09T01:10:51.546Z,31.02
2023-02-09T01:11:53.150Z,24.10
2023-02-09T01:12:54.756Z,21.73
2023-02-09T01:13:58.350Z,25.13
2023-02-09T01:14:59.912Z,26.85
2023-02-09T01:16:09.192Z,21.88
2023-02-09T01:17:10.790Z,19.45
2023-02-09T01:18:12.395Z,28.13
2023-02-09T01:19:14.925Z,19.15
2023-02-09T01:20:16.936Z,6.82
2023-02-09T01:21:21.102Z,9.30
2023-02-09T01:22:22.706Z,33.40
2023-02-09T01:23:24.277Z,23.13
2023-02-09T01:24:25.912Z,10.82
2023-02-09T01:25:27.421Z,12.90
2023-02-09T01:26:29.029Z,10.77
2023-02-09T01:27:30.592Z,32.80
2023-02-09T01:28:34.585Z,13.35
2023-02-09T01:29:37.828Z,4.57
2023-02-09T01:30:39.495Z,27.95
2023-02-09T01:31:41.415Z,14.55
2023-02-09T01:32:43.258Z,18.60
2023-02-09T01:33:45.168Z,32.47
2023-02-09T01:34:51.172Z,3.05
2023-02-09T01:35:59.833Z,15.80
2023-02-09T01:37:01.344Z,6.18
2023-02-09T01:38:03.031Z,21.30
2023-02-09T01:39:04.856Z,12.82
2023-02-09T01:40:10.414Z,8.70
2023-02-09T01:41:12.264Z,14.73
2023-02-09T01:42:16.167Z,9.48
2023-02-09T01:43:17.821Z,9.65
2023-02-09T01:44:19.432Z,26.27
2023-02-09T01:45:43.759Z,10.82
2023-02-09T01:46:45.323Z,7.97
2023-02-09T01:47:52.213Z,5.45
2023-02-09T01:49:01.361Z,7.90
2023-02-09T01:50:03.457Z,4.55
2023-02-09T01:51:05.444Z,3.25
2023-02-09T01:52:16.821Z,4.43
2023-02-09T01:53:19.749Z,5.93
2023-02-09T01:54:27.088Z,1.23
2023-02-09T01:55:32.381Z,1.08
2023-02-09T01:56:34.595Z,2.17
2023-02-09T01:57:39.588Z,5.47
2023-02-09T01:58:41.391Z,0.30
2023-02-09T01:59:46.877Z,10.50
2023-02-09T02:00:49.611Z,7.35
2023-02-09T02:01:52.891Z,0.98
2023-02-09T02:02:57.732Z,25.10
2023-02-09T02:03:59.642Z,8.73
2023-02-09T02:05:01.967Z,0.80
2023-02-09T02:06:09.516Z,4.03
2023-02-09T02:07:20.215Z,6.00
2023-02-09T02:08:35.184Z,0.65
2023-02-09T02:09:37.253Z,0.77
2023-02-09T02:10:38.916Z,13.10
2023-02-09T02:11:43.833Z,0.40
2023-02-09T02:12:45.743Z,3.85
2023-02-09T02:13:47.510Z,9.48
2023-02-09T02:14:49.577Z,6.25
2023-02-09T02:15:52.038Z,2.72
2023-02-09T02:17:22.547Z,5.63
2023-02-09T02:18:49.734Z,22.73
2023-02-09T02:20:31.176Z,28.27
2023-02-09T02:21:41.961Z,9.48
2023-02-09T02:23:07.004Z,7.85
2023-02-09T02:24:11.468Z,18.45
2023-02-09T02:25:34.567Z,8.15
2023-02-09T02:27:05.233Z,3.28
2023-02-09T02:28:32.099Z,2.35
2023-02-09T02:29:33.589Z,0.55
2023-02-09T02:30:57.732Z,3.80
2023-02-09T02:32:38.120Z,1.58
2023-02-09T02:33:57.942Z,7.68
2023-02-09T02:35:28.696Z,2.63
2023-02-09T02:36:54.011Z,1.55
2023-02-09T02:38:07.632Z,4.78
2023-02-09T02:39:36.770Z,1.60
2023-02-09T02:41:04.676Z,5.20
2023-02-09T02:42:26.825Z,3.72
2023-02-09T02:44:07.241Z,2.50
2023-02-09T02:45:11.715Z,0.52
2023-02-09T02:46:30.453Z,0.50
2023-02-09T02:47:35.076Z,2.08
2023-02-09T02:48:52.643Z,29.63
2023-02-09T02:50:00.665Z,0.60
2023-02-09T02:51:05.105Z,1.40
2023-02-09T02:52:11.323Z,1.13
2023-02-09T02:53:14.912Z,5.97
2023-02-09T02:54:21.756Z,2.42
2023-02-09T02:55:27.755Z,0.95
2023-02-09T02:56:38.471Z,0.75
2023-02-09T02:57:43.529Z,0.30
2023-02-09T02:58:47.717Z,6.60
2023-02-09T02:59:55.614Z,14.13
2023-02-09T03:00:59.706Z,0.68
2023-02-09T03:02:12.489Z,0.73
2023-02-09T03:03:17.757Z,3.92
2023-02-09T03:04:20.919Z,0.95
2023-02-09T03:05:23.896Z,1.10
2023-02-09T03:06:25.458Z,1.40
2023-02-09T03:07:27.002Z,0.93
2023-02-09T03:08:28.564Z,1.50
2023-02-09T03:09:30.064Z,0.75
2023-02-09T03:10:34.747Z,0.60
2023-02-09T03:11:41.691Z,2.50
2023-02-09T03:12:46.135Z,0.68
2023-02-09T03:14:02.934Z,0.40
2023-02-09T03:15:07.454Z,2.47
2023-02-09T03:16:22.542Z,1.40
2023-02-09T03:17:41.202Z,0.40
2023-02-09T03:19:08.566Z,3.13
2023-02-09T03:20:31.075Z,0.45
2023-02-09T03:21:35.583Z,5.25
2023-02-09T03:22:40.423Z,2.85
2023-02-09T03:24:11.354Z,1.33
2023-02-09T03:25:22.583Z,2.53
2023-02-09T03:26:29.918Z,0.70
2023-02-09T03:27:35.209Z,8.57
2023-02-09T03:28:39.580Z,3.55
2023-02-09T03:29:45.587Z,31.67
2023-02-09T03:30:48.657Z,8.15
2023-02-09T03:31:51.328Z,5.93
2023-02-09T03:32:53.059Z,14.77
2023-02-09T03:33:57.298Z,9.88
2023-02-09T03:34:59.136Z,5.50
2023-02-09T03:36:02.484Z,4.03
2023-02-09T03:37:04.181Z,16.08
2023-02-09T03:38:05.729Z,2.42
2023-02-09T03:39:07.284Z,18.23
2023-02-09T03:40:09.810Z,3.50
2023-02-09T03:41:11.621Z,5.90
2023-02-09T03:42:13.232Z,11.25
2023-02-09T03:43:14.834Z,0.55
2023-02-09T03:44:16.351Z,6.22
2023-02-09T03:45:18.042Z,2.33
2023-02-09T03:46:19.692Z,0.63
2023-02-09T03:47:21.265Z,4.50
2023-02-09T03:48:22.753Z,3.00
2023-02-09T03:49:26.673Z,5.70
2023-02-09T03:50:28.213Z,14.68
2023-02-09T03:51:29.770Z,9.00
2023-02-09T03:52:31.298Z,8.23
2023-02-09T03:53:36.565Z,3.30
2023-02-09T03:54:38.508Z,12.60
2023-02-09T03:55:40.049Z,3.92
2023-02-09T03:56:41.679Z,1.45
2023-02-09T03:57:43.233Z,54.92
2023-02-09T03:58:44.732Z,3.83
2023-02-09T03:59:46.211Z,1.27
2023-02-09T04:00:47.941Z,8.07
2023-02-09T04:01:49.496Z,0.60
2023-02-09T04:02:51.092Z,1.65
2023-02-09T04:03:52.648Z,6.78
2023-02-09T04:04:54.231Z,2.13
2023-02-09T04:05:55.959Z,0.40
2023-02-09T04:06:57.928Z,0.40
2023-02-09T04:07:59.482Z,3.70
2023-02-09T04:09:03.032Z,4.03
2023-02-09T04:10:05.739Z,0.77
2023-02-09T04:11:07.238Z,0.60
2023-02-09T04:12:08.767Z,3.00
2023-02-09T04:13:10.366Z,1.02
2023-02-09T04:14:11.871Z,2.90
2023-02-09T04:15:13.429Z,6.68
2023-02-09T04:16:15.004Z,0.68
2023-02-09T04:17:16.576Z,0.40
2023-02-09T04:18:18.489Z,0.40
2023-02-09T04:19:20.095Z,0.65
2023-02-09T04:20:21.706Z,2.65
2023-02-09T04:21:23.409Z,2.47
2023-02-09T04:22:27.534Z,2.67
2023-02-09T04:23:29.175Z,0.30
2023-02-09T04:24:30.798Z,1.85
2023-02-09T04:25:32.388Z,0.40
2023-02-09T04:26:34.508Z,0.40
2023-02-09T04:27:36.124Z,0.40
2023-02-09T04:28:37.808Z,0.63
2023-02-09T04:29:39.423Z,3.50
2023-02-09T04:30:41.069Z,0.98
2023-02-09T04:31:42.858Z,0.32
2023-02-09T04:32:44.396Z,0.40
2023-02-09T04:33:45.944Z,1.30
2023-02-09T04:34:47.548Z,3.85
2023-02-09T04:35:49.327Z,1.52
2023-02-09T04:36:51.476Z,8.50
2023-02-09T04:37:53.028Z,0.50
2023-02-09T04:38:54.602Z,4.43
2023-02-09T04:39:56.121Z,3.00
2023-02-09T04:41:00.765Z,4.38
2023-02-09T04:42:02.365Z,1.77
2023-02-09T04:43:03.909Z,1.55
2023-02-09T04:44:05.484Z,3.45
2023-02-09T04:45:07.371Z,4.85
2023-02-09T04:46:17.213Z,6.20
2023-02-09T04:47:18.779Z,6.22
2023-02-09T04:48:22.528Z,2.53
2023-02-09T04:49:24.023Z,1.25
2023-02-09T04:50:25.643Z,16.42
2023-02-09T04:51:27.248Z,4.20
2023-02-09T04:52:28.765Z,6.63
2023-02-09T04:53:30.473Z,0.95
2023-02-09T04:54:32.039Z,9.18
2023-02-09T04:55:36.328Z,6.97
2023-02-09T04:56:38.897Z,9.07
2023-02-09T04:57:40.558Z,10.85
2023-02-09T04:58:43.288Z,1.55
2023-02-09T04:59:44.899Z,0.82
2023-02-09T05:00:46.693Z,0.93
2023-02-09T05:01:48.394Z,1.92
2023-02-09T05:02:50.011Z,1.23
2023-02-09T05:03:52.277Z,2.15
2023-02-09T05:04:53.837Z,5.15
2023-02-09T05:06:01.374Z,5.15
2023-02-09T05:07:03.273Z,2.60
2023-02-09T05:08:04.995Z,5.45
2023-02-09T05:09:06.565Z,4.90
2023-02-09T05:10:08.313Z,6.57
2023-02-09T05:11:10.835Z,25.83
2023-02-09T05:12:12.409Z,4.88
2023-02-09T05:13:14.060Z,2.38
2023-02-09T05:14:15.620Z,6.22
2023-02-09T05:15:17.256Z,5.13
2023-02-09T05:16:18.946Z,25.77
2023-02-09T05:17:20.543Z,4.63
2023-02-09T05:18:22.862Z,3.47
2023-02-09T05:19:24.385Z,1.13
2023-02-09T05:20:25.945Z,1.13
2023-02-09T05:21:27.499Z,6.50
2023-02-09T05:22:29.102Z,1.15
2023-02-09T05:23:31.019Z,1.08
2023-02-09T05:24:32.567Z,2.45
2023-02-09T05:25:34.380Z,3.55
2023-02-09T05:26:36.545Z,10.68
2023-02-09T05:27:38.149Z,5.47
2023-02-09T05:28:39.755Z,5.40
2023-02-09T05:29:41.276Z,10.90
2023-02-09T05:30:42.955Z,1.48
2023-02-09T05:31:44.675Z,2.97
2023-02-09T05:32:46.298Z,3.88
2023-02-09T05:33:47.876Z,1.08
2023-02-09T05:34:50.101Z,1.38
2023-02-09T05:35:53.112Z,6.63
2023-02-09T05:36:54.637Z,15.20
2023-02-09T05:37:56.142Z,4.28
2023-02-09T05:38:57.699Z,13.77
2023-02-09T05:39:59.243Z,4.47
2023-02-09T05:41:05.840Z,5.90
2023-02-09T05:42:07.411Z,3.20
2023-02-09T05:43:09.062Z,9.65
2023-02-09T05:44:10.574Z,3.17
2023-02-09T05:45:12.082Z,7.40
2023-02-09T05:46:13.655Z,4.38
2023-02-09T05:47:17.901Z,3.85
2023-02-09T05:48:19.469Z,7.90
2023-02-09T05:49:20.978Z,2.28
2023-02-09T05:50:22.493Z,6.65
2023-02-09T05:51:28.664Z,4.78
2023-02-09T05:52:30.215Z,6.90
2023-02-09T05:53:31.780Z,5.10
2023-02-09T05:54:33.382Z,9.35
2023-02-09T05:55:34.980Z,3.25
2023-02-09T05:56:36.486Z,5.70
2023-02-09T05:57:38.034Z,5.15
2023-02-09T05:58:39.588Z,2.45
2023-02-09T05:59:41.255Z,1.67
2023-02-09T06:00:42.801Z,0.60
2023-02-09T06:01:44.404Z,5.10
2023-02-09T06:02:46.072Z,10.18
2023-02-09T06:03:47.711Z,5.95
2023-02-09T06:04:49.239Z,3.33
2023-02-09T06:05:50.761Z,5.18
2023-02-09T06:06:52.525Z,6.03
2023-02-09T06:07:54.108Z,1.23
2023-02-09T06:08:55.604Z,2.42
2023-02-09T06:09:57.137Z,7.38
2023-02-09T06:10:58.634Z,3.80
2023-02-09T06:12:00.132Z,1.50
2023-02-09T06:13:01.701Z,0.40
2023-02-09T06:14:03.864Z,1.10
2023-02-09T06:15:05.979Z,0.93
2023-02-09T06:16:07.898Z,2.47
2023-02-09T06:17:09.492Z,8.13
2023-02-09T06:18:11.097Z,7.07
2023-02-09T06:19:17.411Z,2.35
2023-02-09T06:20:19.018Z,5.80
2023-02-09T06:21:20.721Z,2.20
2023-02-09T06:22:22.325Z,6.93
2023-02-09T06:23:23.874Z,0.88
2023-02-09T06:24:25.634Z,2.03
2023-02-09T06:25:27.167Z,3.22
2023-02-09T06:26:28.842Z,6.60
2023-02-09T06:27:30.341Z,2.63
2023-02-09T06:28:31.970Z,14.35
2023-02-09T06:29:33.547Z,20.75
2023-02-09T06:30:35.164Z,2.65
2023-02-09T06:31:36.906Z,6.72
2023-02-09T06:32:38.581Z,1.77
2023-02-09T06:33:40.537Z,4.40
2023-02-09T06:34:42.182Z,2.13
2023-02-09T06:35:44.012Z,6.53
2023-02-09T06:36:45.526Z,1.35
2023-02-09T06:37:47.010Z,4.50
2023-02-09T06:38:48.612Z,5.13
2023-02-09T06:39:50.223Z,0.40
2023-02-09T06:40:51.832Z,2.85
2023-02-09T06:41:53.430Z,0.95
2023-02-09T06:42:55.037Z,1.77
2023-02-09T06:43:56.594Z,4.28
2023-02-09T06:44:58.229Z,9.45
2023-02-09T06:46:08.894Z,1.20
2023-02-09T06:47:10.542Z,0.70
2023-02-09T06:48:12.062Z,1.40
2023-02-09T06:49:13.774Z,0.73
2023-02-09T06:50:16.893Z,1.63
2023-02-09T06:51:18.640Z,1.27
2023-02-09T06:52:20.204Z,1.95
2023-02-09T06:53:21.734Z,1.55
2023-02-09T06:54:23.282Z,1.00
2023-02-09T06:55:24.829Z,1.05
2023-02-09T06:56:26.361Z,0.73
2023-02-09T06:57:29.854Z,3.10
2023-02-09T06:58:31.483Z,0.98
2023-02-09T06:59:32.993Z,2.22
2023-02-09T07:00:34.497Z,11.20
2023-02-09T07:01:36.180Z,0.68
2023-02-09T07:02:38.109Z,7.22
2023-02-09T07:03:39.742Z,3.38
2023-02-09T07:04:41.261Z,1.30
2023-02-09T07:05:42.816Z,16.23
2023-02-09T07:06:44.328Z,9.30
2023-02-09T07:07:46.521Z,0.70
2023-02-09T07:08:48.971Z,29.02
2023-02-09T07:09:50.488Z,10.88
2023-02-09T07:10:52.041Z,22.95
2023-02-09T07:11:53.638Z,4.47
2023-02-09T07:12:57.198Z,27.00
2023-02-09T07:13:59.274Z,8.18
2023-02-09T07:15:00.859Z,7.72
2023-02-09T07:16:04.132Z,35.80
2023-02-09T07:17:05.757Z,11.02
2023-02-09T07:18:07.272Z,37.13
2023-02-09T07:19:08.847Z,59.60
2023-02-09T07:20:10.755Z,23.67
2023-02-09T07:21:14.207Z,31.77
2023-02-09T07:22:16.263Z,7.93
2023-02-09T07:23:18.184Z,7.35
2023-02-09T07:24:19.949Z,4.38
2023-02-09T07:25:21.720Z,2.53
2023-02-09T07:26:23.395Z,5.30
2023-02-09T07:27:25.404Z,15.27
2023-02-09T07:28:27.126Z,5.88
2023-02-09T07:29:28.791Z,2.22
2023-02-09T07:30:30.619Z,6.10
2023-02-09T07:31:32.561Z,3.75
2023-02-09T07:32:34.313Z,4.38
2023-02-09T07:33:36.949Z,3.67
2023-02-09T07:34:38.534Z,1.55
2023-02-09T07:35:40.382Z,13.70
2023-02-09T07:36:42.000Z,9.45
2023-02-09T07:37:43.863Z,3.15
2023-02-09T07:38:45.985Z,14.48
2023-02-09T07:39:48.202Z,40.88
2023-02-09T07:40:50.086Z,39.42
2023-02-09T07:41:51.873Z,70.50
2023-02-09T07:42:53.819Z,92.63
2023-02-09T07:43:56.327Z,29.38
2023-02-09T07:44:58.035Z,10.85
2023-02-09T07:46:05.172Z,8.57
2023-02-09T07:47:06.806Z,18.83
2023-02-09T07:48:13.144Z,28.58
2023-02-09T07:49:17.725Z,18.73
2023-02-09T07:50:20.214Z,56.88
2023-02-09T07:51:22.851Z,87.82
2023-02-09T07:52:27.664Z,83.18
2023-02-09T07:53:29.773Z,51.00
2023-02-09T07:54:40.609Z,124.82
2023-02-09T07:55:42.315Z,64.35
2023-02-09T07:56:47.191Z,96.22
2023-02-09T07:57:49.050Z,72.05
2023-02-09T07:58:50.826Z,128.65
2023-02-09T07:59:52.381Z,99.75
2023-02-09T08:00:54.092Z,80.00
2023-02-09T08:01:56.019Z,9.07
2023-02-09T08:02:59.822Z,5.32
2023-02-09T08:04:03.351Z,17.48
2023-02-09T08:05:11.060Z,20.80
2023-02-09T08:06:42.154Z,9.10
2023-02-09T08:07:46.015Z,7.15
2023-02-09T08:08:51.942Z,3.92
2023-02-09T08:09:53.676Z,6.85
2023-02-09T08:10:58.029Z,1.70
2023-02-09T08:12:02.844Z,4.75
2023-02-09T08:13:07.959Z,3.92
2023-02-09T08:14:24.766Z,12.13
2023-02-09T08:15:38.568Z,3.97
2023-02-09T08:16:41.503Z,4.22
2023-02-09T08:17:43.732Z,0.93
2023-02-09T08:18:52.344Z,2.55
2023-02-09T08:20:07.040Z,6.93
2023-02-09T08:21:15.543Z,6.60
2023-02-09T08:22:17.487Z,9.93
2023-02-09T08:23:26.811Z,3.22
2023-02-09T08:24:28.769Z,7.68
2023-02-09T08:25:31.206Z,1.75
2023-02-09T08:26:36.086Z,5.75
2023-02-09T08:27:42.014Z,9.07
2023-02-09T08:28:44.981Z,4.88
2023-02-09T08:29:48.947Z,9.73
2023-02-09T08:30:51.077Z,11.07
2023-02-09T08:31:52.895Z,11.98
2023-02-09T08:32:54.753Z,6.15
2023-02-09T08:33:58.546Z,9.15
2023-02-09T08:35:00.423Z,4.20
2023-02-09T08:36:04.759Z,7.55
2023-02-09T08:37:10.919Z,8.98
2023-02-09T08:38:12.610Z,7.93
2023-02-09T08:39:14.271Z,4.10
2023-02-09T08:40:16.049Z,6.43
2023-02-09T08:41:18.020Z,9.82
2023-02-09T08:42:19.729Z,7.03
2023-02-09T08:43:23.773Z,9.15
2023-02-09T08:44:26.012Z,0.88
2023-02-09T08:45:30.510Z,3.78
2023-02-09T08:46:35.307Z,4.93
2023-02-09T08:47:37.173Z,7.90
2023-02-09T08:48:41.758Z,12.75
2023-02-09T08:49:46.174Z,11.65
2023-02-09T08:50:50.887Z,9.93
2023-02-09T08:51:55.022Z,6.03
2023-02-09T08:52:56.784Z,6.90
2023-02-09T08:53:58.297Z,8.07
2023-02-09T08:54:59.821Z,8.23
2023-02-09T08:56:01.446Z,10.52
2023-02-09T08:57:02.952Z,4.60
2023-02-09T08:58:04.815Z,3.92
2023-02-09T08:59:06.318Z,5.55
2023-02-09T09:00:08.375Z,8.68
2023-02-09T09:01:10.017Z,10.32
2023-02-09T09:02:11.659Z,12.85
2023-02-09T09:03:13.234Z,8.35
2023-02-09T09:04:14.745Z,5.15
2023-02-09T09:05:16.358Z,3.72
2023-02-09T09:06:17.924Z,4.95
2023-02-09T09:07:19.884Z,2.70
2023-02-09T09:08:21.401Z,7.60
2023-02-09T09:09:22.921Z,7.03
2023-02-09T09:10:24.468Z,1.38
2023-02-09T09:11:26.180Z,2.75
2023-02-09T09:12:29.935Z,4.97
2023-02-09T09:13:31.499Z,1.60
2023-02-09T09:14:33.185Z,3.80
2023-02-09T09:15:35.479Z,6.90
2023-02-09T09:16:37.096Z,6.97
2023-02-09T09:17:38.723Z,2.40
2023-02-09T09:18:40.244Z,3.67
2023-02-09T09:19:41.779Z,3.55
2023-02-09T09:20:43.354Z,3.30
2023-02-09T09:21:44.878Z,4.30
2023-02-09T09:22:46.431Z,3.92
2023-02-09T09:23:48.579Z,4.55
2023-02-09T09:24:50.116Z,6.88
2023-02-09T09:25:51.656Z,9.35
2023-02-09T09:26:53.376Z,4.78
2023-02-09T09:27:54.919Z,10.02
2023-02-09T09:28:56.413Z,4.97
2023-02-09T09:29:58.837Z,3.88
2023-02-09T09:31:00.679Z,2.92
2023-02-09T09:32:02.769Z,7.07
2023-02-09T09:33:05.085Z,5.57
2023-02-09T09:34:06.625Z,1.27
2023-02-09T09:35:08.430Z,6.22
2023-02-09T09:36:11.299Z,3.88
2023-02-09T09:37:12.835Z,4.15
2023-02-09T09:38:14.389Z,1.35
2023-02-09T09:39:15.919Z,13.32
2023-02-09T09:40:21.234Z,7.22
2023-02-09T09:41:28.420Z,6.22
2023-02-09T09:42:41.486Z,3.63
2023-02-09T09:43:43.151Z,7.05
2023-02-09T09:44:47.227Z,4.30
2023-02-09T09:45:50.318Z,5.50
2023-02-09T09:46:53.218Z,8.73
2023-02-09T09:47:55.040Z,1.63
2023-02-09T09:48:58.030Z,6.55
2023-02-09T09:49:59.642Z,4.82
2023-02-09T09:51:11.988Z,4.40
2023-02-09T09:52:19.480Z,10.90
2023-02-09T09:53:34.394Z,4.95
2023-02-09T09:54:36.850Z,2.55
2023-02-09T09:55:38.902Z,3.15
2023-02-09T09:56:40.954Z,8.57
2023-02-09T09:57:44.907Z,3.92
2023-02-09T09:58:48.585Z,6.45
2023-02-09T09:59:51.289Z,5.47
2023-02-09T10:00:53.478Z,1.85
2023-02-09T10:01:57.355Z,8.20
2023-02-09T10:02:59.150Z,5.88
2023-02-09T10:04:12.384Z,10.57
2023-02-09T10:05:18.372Z,2.65
2023-02-09T10:06:22.321Z,5.35
2023-02-09T10:07:31.154Z,5.88
2023-02-09T10:08:40.231Z,3.92
2023-02-09T10:09:57.189Z,4.20
2023-02-09T10:11:04.583Z,4.88
2023-02-09T10:12:26.822Z,1.73
2023-02-09T10:13:44.534Z,3.53
2023-02-09T10:14:46.036Z,13.98
2023-02-09T10:15:50.025Z,3.90
2023-02-09T10:16:51.672Z,6.07
2023-02-09T10:17:54.325Z,9.05
2023-02-09T10:18:59.624Z,4.72
2023-02-09T10:20:06.094Z,4.38
2023-02-09T10:21:10.843Z,3.38
2023-02-09T10:22:12.967Z,6.75
2023-02-09T10:23:33.846Z,1.00
2023-02-09T10:24:35.435Z,2.33
2023-02-09T10:25:48.974Z,8.30
2023-02-09T10:27:12.296Z,7.70
2023-02-09T10:28:25.158Z,7.90
2023-02-09T10:29:26.938Z,2.92
2023-02-09T10:30:28.846Z,6.63
2023-02-09T10:31:37.750Z,4.90
2023-02-09T10:32:43.419Z,3.90
2023-02-09T10:33:46.636Z,3.28
2023-02-09T10:34:53.867Z,9.70
2023-02-09T10:35:59.214Z,6.95
2023-02-09T10:37:15.657Z,6.78
2023-02-09T10:38:20.155Z,14.15
2023-02-09T10:39:25.858Z,5.28
2023-02-09T10:40:32.527Z,5.03
2023-02-09T10:41:34.855Z,8.35
2023-02-09T10:42:37.857Z,4.13
2023-02-09T10:43:39.412Z,5.70
2023-02-09T10:44:41.216Z,6.00
2023-02-09T10:45:45.667Z,3.30
2023-02-09T10:46:50.837Z,2.80
2023-02-09T10:48:16.306Z,7.00
2023-02-09T10:49:34.528Z,5.95
2023-02-09T10:50:51.090Z,5.25
2023-02-09T10:52:01.006Z,4.78
2023-02-09T10:53:18.585Z,3.50
2023-02-09T10:54:21.280Z,3.72
2023-02-09T10:55:43.245Z,1.33
2023-02-09T10:56:48.239Z,4.68
2023-02-09T10:57:49.804Z,6.43
2023-02-09T10:59:00.390Z,2.13
2023-02-09T11:00:17.101Z,4.13
2023-02-09T11:01:28.515Z,9.23
2023-02-09T11:02:36.726Z,3.47
2023-02-09T11:04:00.623Z,5.10
2023-02-09T11:05:04.138Z,6.90
2023-02-09T11:06:17.526Z,3.75
2023-02-09T11:07:23.575Z,2.40
2023-02-09T11:08:32.336Z,5.38
2023-02-09T11:09:36.631Z,4.82
2023-02-09T11:11:02.495Z,3.58
2023-02-09T11:12:04.185Z,4.63
2023-02-09T11:13:19.217Z,8.88
2023-02-09T11:14:20.871Z,4.57
2023-02-09T11:15:26.944Z,3.42
2023-02-09T11:16:43.788Z,3.15
2023-02-09T11:17:54.773Z,4.15
2023-02-09T11:19:10.393Z,6.85
2023-02-09T11:20:33.638Z,3.92
2023-02-09T11:21:55.392Z,2.30
2023-02-09T11:23:02.827Z,5.30
2023-02-09T11:24:10.744Z,2.47
2023-02-09T11:25:22.506Z,3.78
2023-02-09T11:27:47.213Z,2.55
2023-02-09T11:29:06.039Z,9.02
2023-02-09T11:30:28.854Z,3.80
2023-02-09T11:31:36.230Z,4.15
2023-02-09T11:32:50.171Z,3.35
2023-02-09T11:34:06.912Z,4.65
2023-02-09T11:35:17.885Z,4.45
2023-02-09T11:36:25.492Z,1.33
2023-02-09T11:37:34.537Z,2.33
2023-02-09T11:38:55.909Z,5.45
2023-02-09T11:40:19.473Z,3.72
2023-02-09T11:41:36.186Z,4.72
2023-02-09T11:42:44.432Z,3.55
2023-02-09T11:43:51.418Z,4.30
2023-02-09T11:45:00.312Z,3.20
2023-02-09T11:46:15.362Z,3.38
2023-02-09T11:47:48.794Z,11.07
2023-02-09T11:48:57.689Z,2.55
2023-02-09T11:50:04.412Z,2.47
2023-02-09T11:51:11.965Z,6.93
2023-02-09T11:52:25.101Z,3.20
2023-02-09T11:53:44.975Z,4.22
2023-02-09T11:54:50.193Z,3.22
2023-02-09T11:56:00.248Z,2.03
2023-02-09T11:57:14.193Z,3.40
2023-02-09T11:58:24.327Z,6.70
2023-02-09T11:59:40.868Z,5.65
2023-02-09T12:00:57.761Z,4.00
2023-02-09T12:02:37.432Z,2.97
2023-02-09T12:03:52.753Z,8.55
2023-02-09T12:05:00.041Z,9.80
2023-02-09T12:06:02.659Z,2.40
2023-02-09T12:07:42.193Z,6.10
2023-02-09T12:08:48.681Z,2.25
2023-02-09T12:10:00.007Z,3.33
2023-02-09T12:11:23.025Z,2.38
2023-02-09T12:12:47.402Z,5.40
2023-02-09T12:14:02.695Z,3.22
2023-02-09T12:15:22.497Z,8.73
2023-02-09T12:16:29.939Z,5.57
2023-02-09T12:17:40.313Z,3.42
2023-02-09T12:18:44.675Z,4.47
2023-02-09T12:19:55.985Z,6.43
2023-02-09T12:21:04.337Z,12.43
2023-02-09T12:22:33.757Z,3.95
2023-02-09T12:23:43.910Z,4.45
2023-02-09T12:25:12.801Z,2.30
2023-02-09T12:26:17.423Z,10.55
2023-02-09T12:27:25.884Z,6.40
2023-02-09T12:28:27.430Z,5.68
2023-02-09T12:29:40.094Z,4.25
2023-02-09T12:30:44.852Z,4.80
2023-02-09T12:32:14.356Z,4.53
2023-02-09T12:33:22.517Z,8.10
2023-02-09T12:34:35.237Z,4.15
2023-02-09T12:35:40.463Z,5.55
2023-02-09T12:37:01.586Z,4.22
2023-02-09T12:38:13.213Z,3.47
2023-02-09T12:39:28.491Z,4.93
2023-02-09T12:40:37.570Z,5.70
2023-02-09T12:41:41.048Z,3.55
2023-02-09T12:43:25.370Z,6.10
2023-02-09T12:44:26.856Z,5.20
2023-02-09T12:45:31.486Z,2.50
2023-02-09T12:46:33.123Z,2.28
2023-02-09T12:47:44.225Z,3.20
2023-02-09T12:49:04.768Z,13.50
2023-02-09T12:50:22.304Z,4.85
2023-02-09T12:51:45.287Z,9.82
2023-02-09T12:53:23.805Z,2.65
2023-02-09T12:54:46.702Z,1.20
2023-02-09T12:56:09.062Z,3.53
2023-02-09T12:57:16.584Z,4.90
2023-02-09T12:58:53.053Z,4.55
2023-02-09T12:59:54.557Z,7.07
2023-02-09T13:00:56.460Z,5.25
2023-02-09T13:02:10.845Z,3.28
2023-02-09T13:03:14.735Z,7.95
2023-02-09T13:04:16.818Z,1.48
2023-02-09T13:05:22.032Z,6.28
2023-02-09T13:06:51.310Z,3.72
2023-02-09T13:08:11.269Z,3.42
2023-02-09T13:09:36.253Z,4.63
2023-02-09T13:11:15.113Z,5.78
2023-02-09T13:12:22.207Z,5.75
2023-02-09T13:13:35.687Z,4.78
2023-02-09T13:14:38.434Z,6.60
2023-02-09T13:15:58.344Z,2.58
2023-02-09T13:17:08.924Z,4.80
2023-02-09T13:18:17.135Z,3.53
2023-02-09T13:19:52.203Z,5.53
2023-02-09T13:20:53.656Z,3.30
2023-02-09T13:23:22.862Z,2.53
2023-02-09T13:24:53.662Z,4.43
2023-02-09T13:26:02.738Z,4.55
2023-02-09T13:27:17.489Z,6.90
2023-02-09T13:28:21.208Z,1.05
2023-02-09T13:29:31.225Z,3.92
2023-02-09T13:30:32.779Z,5.55
2023-02-09T13:31:40.039Z,3.17
2023-02-09T13:33:13.952Z,6.05
2023-02-09T13:34:56.041Z,3.50
2023-02-09T13:35:57.537Z,8.20
2023-02-09T13:37:27.053Z,2.35
2023-02-09T13:38:32.675Z,4.68
2023-02-09T13:39:38.444Z,4.32
2023-02-09T13:40:46.644Z,1.15
2023-02-09T13:41:48.513Z,2.08
2023-02-09T13:42:57.773Z,1.92
2023-02-09T13:43:59.348Z,6.03
2023-02-09T13:45:01.027Z,5.03
2023-02-09T13:46:03.215Z,8.15
2023-02-09T13:47:07.413Z,2.17
2023-02-09T13:48:22.623Z,4.43
2023-02-09T13:49:25.911Z,4.47
2023-02-09T13:50:28.467Z,6.15
2023-02-09T13:51:29.986Z,5.55
2023-02-09T13:52:38.845Z,7.93
2023-02-09T13:53:40.852Z,3.38
2023-02-09T13:54:43.229Z,3.22
2023-02-09T13:55:47.086Z,8.35
2023-02-09T13:56:49.180Z,4.47
2023-02-09T13:58:28.603Z,4.47
2023-02-09T13:59:30.196Z,1.98
2023-02-09T14:00:49.955Z,2.65
2023-02-09T14:01:53.544Z,8.65
2023-02-09T14:03:09.040Z,8.02
2023-02-09T14:04:28.182Z,4.10
2023-02-09T14:05:43.981Z,10.38
2023-02-09T14:07:09.662Z,1.65
2023-02-09T14:08:14.339Z,1.17
2023-02-09T14:09:23.217Z,7.32
2023-02-09T14:10:26.331Z,5.22
2023-02-09T14:11:43.143Z,3.10
2023-02-09T14:12:56.270Z,1.90
2023-02-09T14:14:08.463Z,5.22
2023-02-09T14:15:12.356Z,4.18
2023-02-09T14:16:17.399Z,5.75
2023-02-09T14:17:34.030Z,2.20
2023-02-09T14:18:52.199Z,7.88
2023-02-09T14:19:55.616Z,6.00
2023-02-09T14:21:12.373Z,5.85
2023-02-09T14:22:31.706Z,6.53
2023-02-09T14:23:33.229Z,7.05
2023-02-09T14:24:43.470Z,1.52
2023-02-09T14:25:46.556Z,1.50
2023-02-09T14:26:56.944Z,4.03
2023-02-09T14:27:59.376Z,5.47
2023-02-09T14:29:12.803Z,5.63
2023-02-09T14:30:22.214Z,1.17
2023-02-09T14:31:26.562Z,5.25
2023-02-09T14:32:35.720Z,4.85
2023-02-09T14:33:37.474Z,5.78
2023-02-09T14:34:40.363Z,7.65
2023-02-09T14:35:42.123Z,7.88
2023-02-09T14:36:51.950Z,7.47